sensor_id;sensor_type;location;lat;lon;timestamp;temperature;humidity
22108;DHT22;11220;48.812;9.128;2022-12-18T00:00:57;14.20;62.60
22108;DHT22;11220;48.812;9.128;2022-12-18T00:03:22;14.20;62.60
22108;DHT22;11220;48.812;9.128;2022-12-18T00:05:51;14.20;62.50
22108;DHT22;11220;48.812;9.128;2022-12-18T00:08:18;14.10;62.30
22108;DHT22;11220;48.812;9.128;2022-12-18T00:10:44;14.20;62.40
22108;DHT22;11220;48.812;9.128;2022-12-18T00:13:11;14.10;62.20
22108;DHT22;11220;48.812;9.128;2022-12-18T00:15:37;14.10;62.30
22108;DHT22;11220;48.812;9.128;2022-12-18T00:18:03;14.10;62.20
22108;DHT22;11220;48.812;9.128;2022-12-18T00:20:29;14.10;62.30
22108;DHT22;11220;48.812;9.128;2022-12-18T00:22:55;14.10;62.40
22108;DHT22;11220;48.812;9.128;2022-12-18T00:25:21;14.10;62.20
22108;DHT22;11220;48.812;9.128;2022-12-18T00:27:47;14.10;62.00
22108;DHT22;11220;48.812;9.128;2022-12-18T00:30:13;14.10;62.00
22108;DHT22;11220;48.812;9.128;2022-12-18T00:32:38;14.10;61.80
22108;DHT22;11220;48.812;9.128;2022-12-18T00:35:05;14.10;61.70
22108;DHT22;11220;48.812;9.128;2022-12-18T00:37:33;14.10;61.60
22108;DHT22;11220;48.812;9.128;2022-12-18T00:39:59;14.10;61.50
22108;DHT22;11220;48.812;9.128;2022-12-18T00:42:24;14.10;61.40
22108;DHT22;11220;48.812;9.128;2022-12-18T00:45:08;14.00;61.40
22108;DHT22;11220;48.812;9.128;2022-12-18T00:47:34;14.00;61.50
22108;DHT22;11220;48.812;9.128;2022-12-18T00:49:59;14.00;61.50
22108;DHT22;11220;48.812;9.128;2022-12-18T00:52:25;14.00;61.30
22108;DHT22;11220;48.812;9.128;2022-12-18T00:54:50;14.00;61.40
22108;DHT22;11220;48.812;9.128;2022-12-18T00:57:16;14.00;61.50
22108;DHT22;11220;48.812;9.128;2022-12-18T00:59:41;14.00;61.50
22108;DHT22;11220;48.812;9.128;2022-12-18T01:02:07;14.00;61.50
22108;DHT22;11220;48.812;9.128;2022-12-18T01:04:33;14.00;61.30
22108;DHT22;11220;48.812;9.128;2022-12-18T01:06:59;13.90;61.10
22108;DHT22;11220;48.812;9.128;2022-12-18T01:09:24;14.00;61.20
22108;DHT22;11220;48.812;9.128;2022-12-18T01:11:50;13.90;61.10
22108;DHT22;11220;48.812;9.128;2022-12-18T01:14:15;13.90;61.10
22108;DHT22;11220;48.812;9.128;2022-12-18T01:16:41;13.90;60.90
22108;DHT22;11220;48.812;9.128;2022-12-18T01:19:07;13.90;60.70
22108;DHT22;11220;48.812;9.128;2022-12-18T01:21:35;13.90;60.50
22108;DHT22;11220;48.812;9.128;2022-12-18T01:24:01;13.90;60.60
22108;DHT22;11220;48.812;9.128;2022-12-18T01:26:27;13.90;60.50
22108;DHT22;11220;48.812;9.128;2022-12-18T01:28:55;13.90;60.50
22108;DHT22;11220;48.812;9.128;2022-12-18T01:31:25;13.80;60.50
22108;DHT22;11220;48.812;9.128;2022-12-18T01:33:51;13.90;60.60
22108;DHT22;11220;48.812;9.128;2022-12-18T01:36:18;13.90;60.90
22108;DHT22;11220;48.812;9.128;2022-12-18T01:38:44;13.90;61.10
22108;DHT22;11220;48.812;9.128;2022-12-18T01:41:10;13.90;61.00
22108;DHT22;11220;48.812;9.128;2022-12-18T01:43:56;13.90;61.10
22108;DHT22;11220;48.812;9.128;2022-12-18T01:46:25;13.90;60.80
22108;DHT22;11220;48.812;9.128;2022-12-18T01:48:55;13.90;60.50
22108;DHT22;11220;48.812;9.128;2022-12-18T01:51:22;13.90;60.40
22108;DHT22;11220;48.812;9.128;2022-12-18T01:53:48;13.90;60.60
22108;DHT22;11220;48.812;9.128;2022-12-18T01:56:19;13.90;60.60
22108;DHT22;11220;48.812;9.128;2022-12-18T01:59:06;13.90;60.40
22108;DHT22;11220;48.812;9.128;2022-12-18T02:01:34;13.90;60.30
22108;DHT22;11220;48.812;9.128;2022-12-18T02:04:24;13.90;60.70
22108;DHT22;11220;48.812;9.128;2022-12-18T02:07:37;13.90;60.10
22108;DHT22;11220;48.812;9.128;2022-12-18T02:09:47;13.80;60.20
22108;DHT22;11220;48.812;9.128;2022-12-18T02:12:21;13.90;60.20
22108;DHT22;11220;48.812;9.128;2022-12-18T02:15:15;13.80;60.00
22108;DHT22;11220;48.812;9.128;2022-12-18T02:17:55;13.90;59.90
22108;DHT22;11220;48.812;9.128;2022-12-18T02:20:36;13.80;59.90
22108;DHT22;11220;48.812;9.128;2022-12-18T02:23:16;13.90;60.10
22108;DHT22;11220;48.812;9.128;2022-12-18T02:26:06;13.90;60.00
22108;DHT22;11220;48.812;9.128;2022-12-18T02:28:46;13.90;59.90
22108;DHT22;11220;48.812;9.128;2022-12-18T02:31:18;13.80;60.00
22108;DHT22;11220;48.812;9.128;2022-12-18T02:33:48;13.80;60.00
22108;DHT22;11220;48.812;9.128;2022-12-18T02:36:16;13.80;59.80
22108;DHT22;11220;48.812;9.128;2022-12-18T02:38:44;13.80;59.60
22108;DHT22;11220;48.812;9.128;2022-12-18T02:41:11;13.80;59.60
22108;DHT22;11220;48.812;9.128;2022-12-18T02:43:38;13.80;59.60
22108;DHT22;11220;48.812;9.128;2022-12-18T02:48:53;13.80;59.50
22108;DHT22;11220;48.812;9.128;2022-12-18T02:51:31;13.80;59.60
22108;DHT22;11220;48.812;9.128;2022-12-18T02:54:09;13.80;59.40
22108;DHT22;11220;48.812;9.128;2022-12-18T02:56:40;13.80;59.50
22108;DHT22;11220;48.812;9.128;2022-12-18T02:59:14;13.80;59.50
22108;DHT22;11220;48.812;9.128;2022-12-18T03:01:50;13.70;59.30
22108;DHT22;11220;48.812;9.128;2022-12-18T03:07:02;13.80;59.30
22108;DHT22;11220;48.812;9.128;2022-12-18T03:09:35;13.80;59.30
22108;DHT22;11220;48.812;9.128;2022-12-18T03:12:09;13.80;59.30
22108;DHT22;11220;48.812;9.128;2022-12-18T03:15:04;13.80;59.30
22108;DHT22;11220;48.812;9.128;2022-12-18T03:17:33;13.80;59.40
22108;DHT22;11220;48.812;9.128;2022-12-18T03:20:06;13.80;59.50
22108;DHT22;11220;48.812;9.128;2022-12-18T03:22:33;13.70;59.20
22108;DHT22;11220;48.812;9.128;2022-12-18T03:25:03;13.70;59.20
22108;DHT22;11220;48.812;9.128;2022-12-18T03:27:33;13.70;59.30
22108;DHT22;11220;48.812;9.128;2022-12-18T03:30:03;13.70;59.30
22108;DHT22;11220;48.812;9.128;2022-12-18T03:32:38;13.70;59.20
22108;DHT22;11220;48.812;9.128;2022-12-18T03:35:07;13.70;59.20
22108;DHT22;11220;48.812;9.128;2022-12-18T03:37:33;13.70;60.00
22108;DHT22;11220;48.812;9.128;2022-12-18T03:39:59;13.70;59.20
22108;DHT22;11220;48.812;9.128;2022-12-18T03:43:10;13.70;59.30
22108;DHT22;11220;48.812;9.128;2022-12-18T03:45:27;13.70;59.40
22108;DHT22;11220;48.812;9.128;2022-12-18T03:48:20;13.70;59.10
22108;DHT22;11220;48.812;9.128;2022-12-18T03:50:57;13.70;59.20
22108;DHT22;11220;48.812;9.128;2022-12-18T03:53:41;13.70;59.30
22108;DHT22;11220;48.812;9.128;2022-12-18T03:56:08;13.70;59.20
22108;DHT22;11220;48.812;9.128;2022-12-18T03:58:35;13.70;59.30
22108;DHT22;11220;48.812;9.128;2022-12-18T04:01:05;13.70;59.20
22108;DHT22;11220;48.812;9.128;2022-12-18T04:03:33;13.70;59.20
22108;DHT22;11220;48.812;9.128;2022-12-18T04:06:00;13.70;59.40
22108;DHT22;11220;48.812;9.128;2022-12-18T04:08:26;13.70;59.40
22108;DHT22;11220;48.812;9.128;2022-12-18T04:10:52;13.70;59.40
22108;DHT22;11220;48.812;9.128;2022-12-18T04:13:27;13.70;59.30
22108;DHT22;11220;48.812;9.128;2022-12-18T04:15:53;13.70;59.20
22108;DHT22;11220;48.812;9.128;2022-12-18T04:18:19;13.70;59.30
22108;DHT22;11220;48.812;9.128;2022-12-18T04:20:45;13.70;59.10
22108;DHT22;11220;48.812;9.128;2022-12-18T04:23:10;13.70;59.10
22108;DHT22;11220;48.812;9.128;2022-12-18T04:25:36;13.70;59.00
22108;DHT22;11220;48.812;9.128;2022-12-18T04:28:01;13.70;59.10
22108;DHT22;11220;48.812;9.128;2022-12-18T04:30:27;13.70;59.10
22108;DHT22;11220;48.812;9.128;2022-12-18T04:32:52;13.80;59.10
22108;DHT22;11220;48.812;9.128;2022-12-18T04:35:18;13.80;59.10
22108;DHT22;11220;48.812;9.128;2022-12-18T04:37:43;13.80;59.20
22108;DHT22;11220;48.812;9.128;2022-12-18T04:40:09;13.80;59.40
22108;DHT22;11220;48.812;9.128;2022-12-18T04:42:35;13.80;59.50
22108;DHT22;11220;48.812;9.128;2022-12-18T04:45:01;13.80;59.60
22108;DHT22;11220;48.812;9.128;2022-12-18T04:47:26;13.80;59.80
22108;DHT22;11220;48.812;9.128;2022-12-18T04:49:52;13.90;59.90
22108;DHT22;11220;48.812;9.128;2022-12-18T04:52:17;13.80;59.90
22108;DHT22;11220;48.812;9.128;2022-12-18T04:54:43;13.90;60.00
22108;DHT22;11220;48.812;9.128;2022-12-18T04:57:08;13.90;60.20
22108;DHT22;11220;48.812;9.128;2022-12-18T04:59:34;13.90;60.60
22108;DHT22;11220;48.812;9.128;2022-12-18T05:01:59;13.90;60.80
22108;DHT22;11220;48.812;9.128;2022-12-18T05:04:25;14.00;61.20
22108;DHT22;11220;48.812;9.128;2022-12-18T05:06:50;14.00;61.30
22108;DHT22;11220;48.812;9.128;2022-12-18T05:09:16;14.00;61.30
22108;DHT22;11220;48.812;9.128;2022-12-18T05:11:41;14.00;61.50
22108;DHT22;11220;48.812;9.128;2022-12-18T05:14:07;14.10;61.70
22108;DHT22;11220;48.812;9.128;2022-12-18T05:16:32;14.10;61.70
22108;DHT22;11220;48.812;9.128;2022-12-18T05:18:59;14.10;61.60
22108;DHT22;11220;48.812;9.128;2022-12-18T05:21:24;14.10;61.60
22108;DHT22;11220;48.812;9.128;2022-12-18T05:23:50;14.10;61.60
22108;DHT22;11220;48.812;9.128;2022-12-18T05:26:17;14.10;61.70
22108;DHT22;11220;48.812;9.128;2022-12-18T05:28:43;14.20;62.00
22108;DHT22;11220;48.812;9.128;2022-12-18T05:31:09;14.20;62.00
22108;DHT22;11220;48.812;9.128;2022-12-18T05:33:35;14.20;62.40
22108;DHT22;11220;48.812;9.128;2022-12-18T05:36:02;14.30;62.60
22108;DHT22;11220;48.812;9.128;2022-12-18T05:38:30;14.30;62.80
22108;DHT22;11220;48.812;9.128;2022-12-18T05:40:56;14.30;62.90
22108;DHT22;11220;48.812;9.128;2022-12-18T05:43:25;14.30;63.10
22108;DHT22;11220;48.812;9.128;2022-12-18T05:45:52;14.30;63.20
22108;DHT22;11220;48.812;9.128;2022-12-18T05:48:18;14.30;63.20
22108;DHT22;11220;48.812;9.128;2022-12-18T05:50:46;14.20;63.00
22108;DHT22;11220;48.812;9.128;2022-12-18T05:53:12;14.30;63.20
22108;DHT22;11220;48.812;9.128;2022-12-18T05:55:40;14.30;63.10
22108;DHT22;11220;48.812;9.128;2022-12-18T05:58:07;14.30;62.80
22108;DHT22;11220;48.812;9.128;2022-12-18T06:00:36;14.30;62.70
22108;DHT22;11220;48.812;9.128;2022-12-18T06:03:05;14.30;62.50
22108;DHT22;11220;48.812;9.128;2022-12-18T06:05:38;14.30;62.20
22108;DHT22;11220;48.812;9.128;2022-12-18T06:08:04;14.30;62.30
22108;DHT22;11220;48.812;9.128;2022-12-18T06:10:30;14.30;62.20
22108;DHT22;11220;48.812;9.128;2022-12-18T06:12:55;14.30;62.10
22108;DHT22;11220;48.812;9.128;2022-12-18T06:15:21;14.40;62.30
22108;DHT22;11220;48.812;9.128;2022-12-18T06:17:46;14.40;62.40
22108;DHT22;11220;48.812;9.128;2022-12-18T06:20:12;14.40;62.40
22108;DHT22;11220;48.812;9.128;2022-12-18T06:22:37;14.40;62.50
22108;DHT22;11220;48.812;9.128;2022-12-18T06:25:04;14.40;62.50
22108;DHT22;11220;48.812;9.128;2022-12-18T06:27:29;14.50;62.70
22108;DHT22;11220;48.812;9.128;2022-12-18T06:29:55;14.40;62.70
22108;DHT22;11220;48.812;9.128;2022-12-18T06:32:21;14.50;63.00
22108;DHT22;11220;48.812;9.128;2022-12-18T06:34:49;14.50;62.90
22108;DHT22;11220;48.812;9.128;2022-12-18T06:37:14;14.50;63.10
22108;DHT22;11220;48.812;9.128;2022-12-18T06:39:40;14.50;63.00
22108;DHT22;11220;48.812;9.128;2022-12-18T06:42:05;14.50;63.00
22108;DHT22;11220;48.812;9.128;2022-12-18T06:44:31;14.50;62.80
22108;DHT22;11220;48.812;9.128;2022-12-18T06:46:56;14.50;62.90
22108;DHT22;11220;48.812;9.128;2022-12-18T06:49:22;14.50;62.80
22108;DHT22;11220;48.812;9.128;2022-12-18T06:51:47;14.50;62.70
22108;DHT22;11220;48.812;9.128;2022-12-18T06:54:13;14.50;62.80
22108;DHT22;11220;48.812;9.128;2022-12-18T06:56:38;14.50;62.70
22108;DHT22;11220;48.812;9.128;2022-12-18T06:59:04;14.50;62.70
22108;DHT22;11220;48.812;9.128;2022-12-18T07:01:29;14.50;62.70
22108;DHT22;11220;48.812;9.128;2022-12-18T07:03:56;14.50;62.70
22108;DHT22;11220;48.812;9.128;2022-12-18T07:06:23;14.50;62.70
22108;DHT22;11220;48.812;9.128;2022-12-18T07:08:50;14.50;62.70
22108;DHT22;11220;48.812;9.128;2022-12-18T07:11:16;14.60;62.90
22108;DHT22;11220;48.812;9.128;2022-12-18T07:13:43;14.60;63.00
22108;DHT22;11220;48.812;9.128;2022-12-18T07:16:11;14.60;63.10
22108;DHT22;11220;48.812;9.128;2022-12-18T07:18:37;14.60;63.20
22108;DHT22;11220;48.812;9.128;2022-12-18T07:21:07;14.60;63.20
22108;DHT22;11220;48.812;9.128;2022-12-18T07:23:33;14.60;63.20
22108;DHT22;11220;48.812;9.128;2022-12-18T07:26:08;14.70;63.40
22108;DHT22;11220;48.812;9.128;2022-12-18T07:28:38;14.60;63.30
22108;DHT22;11220;48.812;9.128;2022-12-18T07:31:05;14.60;63.20
22108;DHT22;11220;48.812;9.128;2022-12-18T07:33:32;14.70;63.30
22108;DHT22;11220;48.812;9.128;2022-12-18T07:35:59;14.70;63.30
22108;DHT22;11220;48.812;9.128;2022-12-18T07:38:24;14.70;63.10
22108;DHT22;11220;48.812;9.128;2022-12-18T07:40:50;14.70;63.10
22108;DHT22;11220;48.812;9.128;2022-12-18T07:43:15;14.70;63.00
22108;DHT22;11220;48.812;9.128;2022-12-18T07:45:42;14.70;63.10
22108;DHT22;11220;48.812;9.128;2022-12-18T07:48:07;14.70;63.20
22108;DHT22;11220;48.812;9.128;2022-12-18T07:50:33;14.70;63.20
22108;DHT22;11220;48.812;9.128;2022-12-18T07:52:58;14.70;63.30
22108;DHT22;11220;48.812;9.128;2022-12-18T07:55:31;14.70;63.40
22108;DHT22;11220;48.812;9.128;2022-12-18T07:57:59;14.70;63.30
22108;DHT22;11220;48.812;9.128;2022-12-18T08:00:25;14.70;63.30
22108;DHT22;11220;48.812;9.128;2022-12-18T08:02:51;14.80;63.40
22108;DHT22;11220;48.812;9.128;2022-12-18T08:05:16;14.80;63.50
22108;DHT22;11220;48.812;9.128;2022-12-18T08:07:42;14.80;63.60
22108;DHT22;11220;48.812;9.128;2022-12-18T08:10:08;14.80;63.70
22108;DHT22;11220;48.812;9.128;2022-12-18T08:12:33;14.80;63.70
22108;DHT22;11220;48.812;9.128;2022-12-18T08:14:59;14.90;63.90
22108;DHT22;11220;48.812;9.128;2022-12-18T08:17:24;14.90;63.90
22108;DHT22;11220;48.812;9.128;2022-12-18T08:19:50;14.90;63.90
22108;DHT22;11220;48.812;9.128;2022-12-18T08:22:15;14.90;63.90
22108;DHT22;11220;48.812;9.128;2022-12-18T08:24:41;14.90;63.90
22108;DHT22;11220;48.812;9.128;2022-12-18T08:27:06;15.00;64.00
22108;DHT22;11220;48.812;9.128;2022-12-18T08:29:32;15.00;64.00
22108;DHT22;11220;48.812;9.128;2022-12-18T08:31:59;15.00;64.10
22108;DHT22;11220;48.812;9.128;2022-12-18T08:34:24;15.00;64.20
22108;DHT22;11220;48.812;9.128;2022-12-18T08:36:50;15.00;64.10
22108;DHT22;11220;48.812;9.128;2022-12-18T08:39:15;15.00;64.20
22108;DHT22;11220;48.812;9.128;2022-12-18T08:41:41;15.10;64.30
22108;DHT22;11220;48.812;9.128;2022-12-18T08:44:07;15.10;64.20
22108;DHT22;11220;48.812;9.128;2022-12-18T08:46:52;15.10;64.20
22108;DHT22;11220;48.812;9.128;2022-12-18T08:49:17;15.20;64.30
22108;DHT22;11220;48.812;9.128;2022-12-18T08:51:43;15.20;64.30
22108;DHT22;11220;48.812;9.128;2022-12-18T08:54:11;15.20;64.40
22108;DHT22;11220;48.812;9.128;2022-12-18T08:56:37;15.20;64.40
22108;DHT22;11220;48.812;9.128;2022-12-18T08:59:03;15.20;64.40
22108;DHT22;11220;48.812;9.128;2022-12-18T09:01:29;15.20;64.40
22108;DHT22;11220;48.812;9.128;2022-12-18T09:03:55;15.20;64.30
22108;DHT22;11220;48.812;9.128;2022-12-18T09:06:22;15.20;64.40
22108;DHT22;11220;48.812;9.128;2022-12-18T09:08:48;15.20;64.40
22108;DHT22;11220;48.812;9.128;2022-12-18T09:11:20;15.30;64.50
22108;DHT22;11220;48.812;9.128;2022-12-18T09:13:45;15.30;64.60
22108;DHT22;11220;48.812;9.128;2022-12-18T09:16:11;15.30;64.50
22108;DHT22;11220;48.812;9.128;2022-12-18T09:18:37;15.30;64.60
22108;DHT22;11220;48.812;9.128;2022-12-18T09:21:18;15.40;64.60
22108;DHT22;11220;48.812;9.128;2022-12-18T09:23:44;15.30;64.50
22108;DHT22;11220;48.812;9.128;2022-12-18T09:26:09;15.40;64.60
22108;DHT22;11220;48.812;9.128;2022-12-18T09:28:35;15.40;64.60
22108;DHT22;11220;48.812;9.128;2022-12-18T09:31:05;15.40;64.60
22108;DHT22;11220;48.812;9.128;2022-12-18T09:33:31;15.40;64.60
22108;DHT22;11220;48.812;9.128;2022-12-18T09:35:57;15.40;64.50
22108;DHT22;11220;48.812;9.128;2022-12-18T09:38:22;15.40;64.50
22108;DHT22;11220;48.812;9.128;2022-12-18T09:40:51;15.40;64.50
22108;DHT22;11220;48.812;9.128;2022-12-18T09:43:20;15.40;64.50
22108;DHT22;11220;48.812;9.128;2022-12-18T09:45:53;15.40;64.50
22108;DHT22;11220;48.812;9.128;2022-12-18T09:48:26;15.40;64.50
22108;DHT22;11220;48.812;9.128;2022-12-18T09:50:58;15.40;64.60
22108;DHT22;11220;48.812;9.128;2022-12-18T09:53:29;15.40;64.50
22108;DHT22;11220;48.812;9.128;2022-12-18T09:55:57;15.40;64.50
22108;DHT22;11220;48.812;9.128;2022-12-18T10:00:53;15.50;64.60
22108;DHT22;11220;48.812;9.128;2022-12-18T10:03:20;15.50;64.60
22108;DHT22;11220;48.812;9.128;2022-12-18T10:10:52;15.50;64.40
22108;DHT22;11220;48.812;9.128;2022-12-18T10:18:38;15.60;64.50
22108;DHT22;11220;48.812;9.128;2022-12-18T10:21:12;15.60;64.50
22108;DHT22;11220;48.812;9.128;2022-12-18T10:26:28;15.60;64.40
22108;DHT22;11220;48.812;9.128;2022-12-18T10:28:53;15.60;64.50
22108;DHT22;11220;48.812;9.128;2022-12-18T10:31:23;15.70;64.50
22108;DHT22;11220;48.812;9.128;2022-12-18T10:33:48;15.70;64.60
22108;DHT22;11220;48.812;9.128;2022-12-18T10:36:14;15.70;64.70
22108;DHT22;11220;48.812;9.128;2022-12-18T10:38:40;15.70;64.80
22108;DHT22;11220;48.812;9.128;2022-12-18T10:41:25;15.70;64.80
22108;DHT22;11220;48.812;9.128;2022-12-18T10:44:20;15.70;64.80
22108;DHT22;11220;48.812;9.128;2022-12-18T10:46:49;15.70;65.00
22108;DHT22;11220;48.812;9.128;2022-12-18T10:49:21;15.70;64.90
22108;DHT22;11220;48.812;9.128;2022-12-18T10:51:48;15.70;64.90
22108;DHT22;11220;48.812;9.128;2022-12-18T10:54:20;15.70;64.90
22108;DHT22;11220;48.812;9.128;2022-12-18T10:56:46;15.80;65.00
22108;DHT22;11220;48.812;9.128;2022-12-18T10:59:15;15.80;65.10
22108;DHT22;11220;48.812;9.128;2022-12-18T11:01:58;15.80;65.00
22108;DHT22;11220;48.812;9.128;2022-12-18T11:04:29;15.80;65.10
22108;DHT22;11220;48.812;9.128;2022-12-18T11:07:01;15.80;65.10
22108;DHT22;11220;48.812;9.128;2022-12-18T11:09:33;15.90;65.30
22108;DHT22;11220;48.812;9.128;2022-12-18T11:12:01;15.80;65.30
22108;DHT22;11220;48.812;9.128;2022-12-18T11:14:33;15.80;65.50
22108;DHT22;11220;48.812;9.128;2022-12-18T11:17:00;15.90;65.60
22108;DHT22;11220;48.812;9.128;2022-12-18T11:19:33;15.90;65.60
22108;DHT22;11220;48.812;9.128;2022-12-18T11:22:00;15.90;65.60
22108;DHT22;11220;48.812;9.128;2022-12-18T11:26:59;15.90;65.70
22108;DHT22;11220;48.812;9.128;2022-12-18T11:29:35;16.00;65.80
22108;DHT22;11220;48.812;9.128;2022-12-18T11:32:37;16.00;65.80
22108;DHT22;11220;48.812;9.128;2022-12-18T11:37:53;16.00;65.80
22108;DHT22;11220;48.812;9.128;2022-12-18T11:40:30;16.00;65.80
22108;DHT22;11220;48.812;9.128;2022-12-18T11:43:26;16.00;65.80
22108;DHT22;11220;48.812;9.128;2022-12-18T11:45:59;16.00;65.80
22108;DHT22;11220;48.812;9.128;2022-12-18T11:48:30;16.20;66.90
22108;DHT22;11220;48.812;9.128;2022-12-18T11:51:00;16.00;65.90
22108;DHT22;11220;48.812;9.128;2022-12-18T11:53:27;16.10;66.00
22108;DHT22;11220;48.812;9.128;2022-12-18T11:56:23;16.10;66.00
22108;DHT22;11220;48.812;9.128;2022-12-18T11:59:01;16.10;66.00
22108;DHT22;11220;48.812;9.128;2022-12-18T12:10:12;15.30;56.70
22108;DHT22;11220;48.812;9.128;2022-12-18T12:18:26;15.10;61.10
22108;DHT22;11220;48.812;9.128;2022-12-18T12:26:10;15.40;63.70
22108;DHT22;11220;48.812;9.128;2022-12-18T12:34:25;15.60;64.50
22108;DHT22;11220;48.812;9.128;2022-12-18T12:39:40;15.70;64.90
22108;DHT22;11220;48.812;9.128;2022-12-18T12:45:16;15.80;65.00
22108;DHT22;11220;48.812;9.128;2022-12-18T12:47:44;15.90;65.10
22108;DHT22;11220;48.812;9.128;2022-12-18T12:50:17;15.90;65.10
22108;DHT22;11220;48.812;9.128;2022-12-18T12:52:52;16.10;65.20
22108;DHT22;11220;48.812;9.128;2022-12-18T12:55:22;16.00;65.20
22108;DHT22;11220;48.812;9.128;2022-12-18T12:58:14;16.00;65.10
22108;DHT22;11220;48.812;9.128;2022-12-18T13:03:53;16.10;65.20
22108;DHT22;11220;48.812;9.128;2022-12-18T13:09:05;16.10;65.10
22108;DHT22;11220;48.812;9.128;2022-12-18T13:11:32;16.10;65.10
22108;DHT22;11220;48.812;9.128;2022-12-18T13:14:30;16.20;65.10
22108;DHT22;11220;48.812;9.128;2022-12-18T13:17:22;16.20;65.10
22108;DHT22;11220;48.812;9.128;2022-12-18T13:19:51;16.20;65.10
22108;DHT22;11220;48.812;9.128;2022-12-18T13:22:29;16.20;65.20
22108;DHT22;11220;48.812;9.128;2022-12-18T13:24:55;16.20;65.30
22108;DHT22;11220;48.812;9.128;2022-12-18T13:35:41;16.20;65.30
22108;DHT22;11220;48.812;9.128;2022-12-18T13:41:01;16.20;65.40
22108;DHT22;11220;48.812;9.128;2022-12-18T13:43:29;16.30;65.50
22108;DHT22;11220;48.812;9.128;2022-12-18T13:49:24;16.30;65.50
22108;DHT22;11220;48.812;9.128;2022-12-18T13:51:52;16.30;65.40
22108;DHT22;11220;48.812;9.128;2022-12-18T13:56:47;16.30;65.30
22108;DHT22;11220;48.812;9.128;2022-12-18T14:01:44;16.30;65.30
22108;DHT22;11220;48.812;9.128;2022-12-18T14:04:12;16.30;65.30
22108;DHT22;11220;48.812;9.128;2022-12-18T14:06:38;16.30;65.30
22108;DHT22;11220;48.812;9.128;2022-12-18T14:09:04;16.30;65.30
22108;DHT22;11220;48.812;9.128;2022-12-18T14:11:30;16.60;65.50
22108;DHT22;11220;48.812;9.128;2022-12-18T14:13:56;16.30;65.30
22108;DHT22;11220;48.812;9.128;2022-12-18T14:16:22;16.30;65.30
22108;DHT22;11220;48.812;9.128;2022-12-18T14:18:52;16.30;65.30
22108;DHT22;11220;48.812;9.128;2022-12-18T14:21:28;16.30;65.30
22108;DHT22;11220;48.812;9.128;2022-12-18T14:24:16;16.20;65.30
22108;DHT22;11220;48.812;9.128;2022-12-18T14:26:43;16.20;65.30
22108;DHT22;11220;48.812;9.128;2022-12-18T14:29:22;16.20;65.30
22108;DHT22;11220;48.812;9.128;2022-12-18T14:32:05;16.20;65.30
22108;DHT22;11220;48.812;9.128;2022-12-18T14:34:31;16.20;65.30
22108;DHT22;11220;48.812;9.128;2022-12-18T14:36:57;16.20;65.30
22108;DHT22;11220;48.812;9.128;2022-12-18T14:39:22;16.20;65.50
22108;DHT22;11220;48.812;9.128;2022-12-18T14:41:50;16.60;65.50
22108;DHT22;11220;48.812;9.128;2022-12-18T14:44:16;16.10;65.30
22108;DHT22;11220;48.812;9.128;2022-12-18T14:46:44;16.20;65.40
22108;DHT22;11220;48.812;9.128;2022-12-18T14:51:57;16.10;65.40
22108;DHT22;11220;48.812;9.128;2022-12-18T14:54:38;16.10;65.40
22108;DHT22;11220;48.812;9.128;2022-12-18T14:57:25;16.10;65.50
22108;DHT22;11220;48.812;9.128;2022-12-18T15:00:06;16.10;65.50
22108;DHT22;11220;48.812;9.128;2022-12-18T15:02:35;16.10;65.50
22108;DHT22;11220;48.812;9.128;2022-12-18T15:05:05;16.10;65.60
22108;DHT22;11220;48.812;9.128;2022-12-18T15:07:46;16.10;65.70
22108;DHT22;11220;48.812;9.128;2022-12-18T15:10:19;16.10;65.80
22108;DHT22;11220;48.812;9.128;2022-12-18T15:12:50;16.10;65.90
22108;DHT22;11220;48.812;9.128;2022-12-18T15:20:52;16.10;65.90
22108;DHT22;11220;48.812;9.128;2022-12-18T15:23:27;16.20;65.90
22108;DHT22;11220;48.812;9.128;2022-12-18T15:26:00;16.10;66.00
22108;DHT22;11220;48.812;9.128;2022-12-18T15:28:36;16.00;65.80
22108;DHT22;11220;48.812;9.128;2022-12-18T15:31:20;16.00;65.80
22108;DHT22;11220;48.812;9.128;2022-12-18T15:36:19;16.00;66.00
22108;DHT22;11220;48.812;9.128;2022-12-18T15:38:49;16.00;66.00
22108;DHT22;11220;48.812;9.128;2022-12-18T15:41:17;16.00;66.00
22108;DHT22;11220;48.812;9.128;2022-12-18T15:43:42;16.00;65.90
22108;DHT22;11220;48.812;9.128;2022-12-18T15:46:12;16.00;65.90
22108;DHT22;11220;48.812;9.128;2022-12-18T15:48:43;16.00;65.90
22108;DHT22;11220;48.812;9.128;2022-12-18T15:51:16;16.00;65.90
22108;DHT22;11220;48.812;9.128;2022-12-18T15:53:42;16.00;65.90
22108;DHT22;11220;48.812;9.128;2022-12-18T15:56:12;16.00;65.90
22108;DHT22;11220;48.812;9.128;2022-12-18T15:58:57;15.90;65.80
22108;DHT22;11220;48.812;9.128;2022-12-18T16:01:24;15.90;65.80
22108;DHT22;11220;48.812;9.128;2022-12-18T16:03:50;15.90;65.80
22108;DHT22;11220;48.812;9.128;2022-12-18T16:06:16;15.90;65.70
22108;DHT22;11220;48.812;9.128;2022-12-18T16:08:41;15.90;65.80
22108;DHT22;11220;48.812;9.128;2022-12-18T16:11:21;15.90;65.90
22108;DHT22;11220;48.812;9.128;2022-12-18T16:14:04;15.90;65.80
22108;DHT22;11220;48.812;9.128;2022-12-18T16:16:29;15.90;65.80
22108;DHT22;11220;48.812;9.128;2022-12-18T16:18:55;15.90;65.90
22108;DHT22;11220;48.812;9.128;2022-12-18T16:21:20;15.90;65.90
22108;DHT22;11220;48.812;9.128;2022-12-18T16:23:48;15.90;65.90
22108;DHT22;11220;48.812;9.128;2022-12-18T16:26:13;15.90;65.90
22108;DHT22;11220;48.812;9.128;2022-12-18T16:28:39;15.90;65.90
22108;DHT22;11220;48.812;9.128;2022-12-18T16:31:05;15.90;65.90
22108;DHT22;11220;48.812;9.128;2022-12-18T16:33:30;15.90;65.90
22108;DHT22;11220;48.812;9.128;2022-12-18T16:35:56;15.90;65.80
22108;DHT22;11220;48.812;9.128;2022-12-18T16:38:21;15.90;65.90
22108;DHT22;11220;48.812;9.128;2022-12-18T16:40:47;15.90;65.90
22108;DHT22;11220;48.812;9.128;2022-12-18T16:43:31;15.90;65.90
22108;DHT22;11220;48.812;9.128;2022-12-18T16:45:58;15.80;65.80
22108;DHT22;11220;48.812;9.128;2022-12-18T16:48:24;15.80;65.80
22108;DHT22;11220;48.812;9.128;2022-12-18T16:50:50;15.80;66.00
22108;DHT22;11220;48.812;9.128;2022-12-18T16:53:24;15.80;65.90
22108;DHT22;11220;48.812;9.128;2022-12-18T16:55:54;15.80;66.00
22108;DHT22;11220;48.812;9.128;2022-12-18T16:58:20;15.80;66.00
22108;DHT22;11220;48.812;9.128;2022-12-18T17:00:45;15.80;66.00
22108;DHT22;11220;48.812;9.128;2022-12-18T17:03:11;15.80;66.00
22108;DHT22;11220;48.812;9.128;2022-12-18T17:05:36;15.80;66.00
22108;DHT22;11220;48.812;9.128;2022-12-18T17:08:02;15.80;66.00
22108;DHT22;11220;48.812;9.128;2022-12-18T17:10:28;15.80;67.00
22108;DHT22;11220;48.812;9.128;2022-12-18T17:12:53;15.80;66.30
22108;DHT22;11220;48.812;9.128;2022-12-18T17:15:19;15.80;66.20
22108;DHT22;11220;48.812;9.128;2022-12-18T17:17:44;15.80;66.30